Time;durP1;ratioP1;P1;durP2;ratioP2;P2;SDS_P1;SDS_P2;PMS_P1;PMS_P2;Temp;Humidity;BMP_temperature;BMP_pressure;BME280_temperature;BME280_humidity;BME280_pressure;Samples;Min_cycle;Max_cycle;Signal;HPM_P1;HPM_P2
2022/03/15 05:06:08;;;;;;;;;7.00;7.00;;;;;;;;2;261283494;261283494;-79
2022/03/15 05:58:14;;;;;;;;;7.00;7.00;;;;;;;;2;261074423;261074423;-84
2022/03/15 06:07:14;;;;;;;;;21.00;9.00;;;;;;;;2;261075383;261075383;-84
2022/03/15 06:25:18;;;;;;;;;13.00;13.00;;;;;;;;2;261080795;261080795;-83
2022/03/15 06:33:39;;;;;;;;;8.00;8.00;;;;;;;;2;261082249;261082249;-84
2022/03/15 06:42:40;;;;;;;;;8.00;8.00;;;;;;;;2;261083542;261083542;-85
2022/03/15 06:50:55;;;;;;;;;9.50;9.50;;;;;;;;2;261079307;261079307;-84
2022/03/15 06:59:56;;;;;;;;;10.50;10.50;;;;;;;;2;261077294;261077294;-86
2022/03/15 07:08:11;;;;;;;;;10.50;10.50;;;;;;;;2;261077655;261077655;-84
2022/03/15 07:17:12;;;;;;;;;14.50;14.50;;;;;;;;2;261079838;261079838;-82
2022/03/15 07:25:27;;;;;;;;;21.50;21.50;;;;;;;;2;261080403;261080403;-82
2022/03/15 07:34:28;;;;;;;;;27.50;16.00;;;;;;;;2;261073262;261073262;-82
2022/03/15 07:42:44;;;;;;;;;26.50;14.50;;;;;;;;2;261074179;261074179;-84
2022/03/15 07:51:45;;;;;;;;;21.00;21.00;;;;;;;;2;261075588;261075588;-83
2022/03/15 08:00:01;;;;;;;;;34.50;17.50;;;;;;;;2;261079034;261079034;-83
2022/03/15 08:09:04;;;;;;;;;15.00;15.00;;;;;;;;2;261077685;261077685;-82
2022/03/15 08:17:20;;;;;;;;;11.50;11.50;;;;;;;;2;261074073;261074073;-83
2022/03/15 08:26:21;;;;;;;;;21.50;21.50;;;;;;;;2;261072948;261072948;-82
2022/03/15 08:34:37;;;;;;;;;18.00;18.00;;;;;;;;2;261075307;261075307;-82
2022/03/15 08:43:37;;;;;;;;;19.50;14.00;;;;;;;;2;261075005;261075005;-83
2022/03/15 08:51:53;;;;;;;;;39.00;24.00;;;;;;;;2;261077829;261077829;-83
2022/03/15 09:00:53;;;;;;;;;25.00;16.00;;;;;;;;2;261076047;261076047;-83
2022/03/15 09:09:09;;;;;;;;;22.00;13.50;;;;;;;;2;261072926;261072926;-83
2022/03/15 09:18:09;;;;;;;;;24.50;13.00;;;;;;;;2;261073997;261073997;-83
2022/03/15 09:26:26;;;;;;;;;18.00;14.00;;;;;;;;2;261075276;261075276;-84
2022/03/15 09:35:26;;;;;;;;;12.50;12.50;;;;;;;;2;261081986;261081986;-84
2022/03/15 09:43:45;;;;;;;;;17.50;17.50;;;;;;;;2;261078488;261078488;-84
2022/03/15 09:52:47;;;;;;;;;14.00;14.00;;;;;;;;2;261077386;261077386;-84
2022/03/15 10:01:02;;;;;;;;;15.50;11.00;;;;;;;;2;261076624;261076624;-85
2022/03/15 10:10:04;;;;;;;;;25.00;17.00;;;;;;;;2;261074083;261074083;-82
2022/03/15 10:18:20;;;;;;;;;37.00;20.50;;;;;;;;2;261080123;261080123;-82
2022/03/15 10:27:21;;;;;;;;;19.00;16.50;;;;;;;;2;261075222;261075222;-82
2022/03/15 10:35:40;;;;;;;;;37.50;17.50;;;;;;;;2;261076964;261076964;-82
2022/03/15 10:44:40;;;;;;;;;28.00;27.50;;;;;;;;2;261075665;261075665;-82
2022/03/15 10:52:58;;;;;;;;;21.50;21.50;;;;;;;;2;261075270;261075270;-82
2022/03/15 11:02:34;;;;;;;;;26.50;14.50;;;;;;;;2;261079127;261079127;-81
2022/03/15 11:20:57;;;;;;;;;;;;;;;;;;;;;
2022/03/15 11:29:17;;;;;;;;;15.50;15.50;;;;;;;;2;261111008;261111008;-82
2022/03/15 11:38:18;;;;;;;;;24.50;20.50;;;;;;;;2;261076881;261076881;-81
2022/03/15 11:46:35;;;;;;;;;18.50;18.50;;;;;;;;2;261078321;261078321;-81
2022/03/15 11:55:49;;;;;;;;;32.50;21.50;;;;;;;;2;261080167;261080167;-81
2022/03/15 12:04:05;;;;;;;;;26.50;22.50;;;;;;;;2;261074648;261074648;-81
2022/03/15 12:13:06;;;;;;;;;26.50;26.50;;;;;;;;2;261076791;261076791;-81
2022/03/15 12:21:28;;;;;;;;;28.00;28.00;;;;;;;;2;261077695;261077695;-79
2022/03/15 12:30:29;;;;;;;;;19.50;19.50;;;;;;;;2;261075320;261075320;-81
2022/03/15 12:38:45;;;;;;;;;11.50;11.50;;;;;;;;2;261080183;261080183;-81
2022/03/15 12:47:48;;;;;;;;;15.00;15.00;;;;;;;;2;261077964;261077964;-81
2022/03/15 12:56:03;;;;;;;;;20.00;20.00;;;;;;;;2;261079237;261079237;-85
2022/03/15 13:05:17;;;;;;;;;25.00;13.00;;;;;;;;2;261077592;261077592;-85
2022/03/15 13:13:32;;;;;;;;;36.00;19.00;;;;;;;;2;261076421;261076421;-85
2022/03/15 13:22:34;;;;;;;;;35.50;30.50;;;;;;;;2;261077264;261077264;-85
2022/03/15 13:30:50;;;;;;;;;21.50;21.50;;;;;;;;2;261073562;261073562;-85
2022/03/15 13:39:52;;;;;;;;;14.50;14.50;;;;;;;;2;261077676;261077676;-85
2022/03/15 13:48:08;;;;;;;;;16.50;11.50;;;;;;;;2;261079743;261079743;-85
2022/03/15 13:57:10;;;;;;;;;15.00;13.00;;;;;;;;2;261072184;261072184;-84
2022/03/15 14:05:27;;;;;;;;;19.00;15.50;;;;;;;;2;261072387;261072387;-85
2022/03/15 14:14:27;;;;;;;;;22.00;16.50;;;;;;;;2;261071803;261071803;-85
2022/03/15 14:22:48;;;;;;;;;13.50;13.50;;;;;;;;2;261077855;261077855;-84
2022/03/15 14:32:01;;;;;;;;;19.00;19.00;;;;;;;;2;261075263;261075263;-85
2022/03/15 14:40:19;;;;;;;;;15.50;15.50;;;;;;;;2;261076017;261076017;-84
2022/03/15 14:49:21;;;;;;;;;22.00;22.00;;;;;;;;2;261072727;261072727;-85
2022/03/15 14:57:45;;;;;;;;;26.00;26.00;;;;;;;;2;261071452;261071452;-83
2022/03/15 15:06:46;;;;;;;;;27.00;27.00;;;;;;;;2;261077654;261077654;-83
2022/03/15 15:15:02;;;;;;;;;23.00;19.50;;;;;;;;2;261075738;261075738;-83
2022/03/15 15:28:13;;;;;;;;;;;;;;;;;;;;;
2022/03/15 15:36:30;;;;;;;;;19.50;19.50;;;;;;;;2;261076967;261076967;-83
2022/03/15 15:46:07;;;;;;;;;18.00;16.00;;;;;;;;2;261072678;261072678;-82
2022/03/15 15:54:58;;;;;;;;;22.00;22.00;;;;;;;;2;261075653;261075653;-84
2022/03/15 16:04:13;;;;;;;;;18.50;18.50;;;;;;;;2;261078721;261078721;-84
2022/03/15 16:57:06;;;;;;;;;10.50;10.50;;;;;;;;2;243076387;243076387;-85
2022/03/15 17:05:52;;;;;;;;;;;;;;;;;;;;;
2022/03/15 17:23:48;;;;;;;;;5.50;5.50;;;;;;;;2;261077556;261077556;-85
2022/03/15 17:32:50;;;;;;;;;12.50;12.50;;;;;;;;2;261075312;261075312;-85
2022/03/15 17:41:05;;;;;;;;;11.00;11.00;;;;;;;;2;261081760;261081760;-85
2022/03/15 17:50:06;;;;;;;;;16.50;14.00;;;;;;;;2;261077070;261077070;-85
2022/03/15 17:58:21;;;;;;;;;10.00;8.50;;;;;;;;2;261077785;261077785;-86
2022/03/15 18:07:26;;;;;;;;;10.00;10.00;;;;;;;;2;261074683;261074683;-87
2022/03/15 18:15:44;;;;;;;;;29.00;17.00;;;;;;;;2;261073012;261073012;-86
2022/03/15 18:24:48;;;;;;;;;21.00;21.00;;;;;;;;2;261077036;261077036;-86
2022/03/15 18:33:05;;;;;;;;;31.00;26.00;;;;;;;;2;261077412;261077412;-86
2022/03/15 18:42:07;;;;;;;;;38.00;29.50;;;;;;;;2;261078971;261078971;-83
2022/03/15 18:50:23;;;;;;;;;18.00;18.00;;;;;;;;2;261084259;261084259;-84
2022/03/15 18:59:25;;;;;;;;;32.00;30.00;;;;;;;;2;261079357;261079357;-84
2022/03/15 19:07:42;;;;;;;;;20.50;20.50;;;;;;;;2;261076901;261076901;-82
2022/03/15 19:16:43;;;;;;;;;17.00;17.00;;;;;;;;2;261084191;261084191;-83
2022/03/15 19:24:59;;;;;;;;;34.00;18.50;;;;;;;;2;261078851;261078851;-83
2022/03/15 19:33:59;;;;;;;;;20.00;20.00;;;;;;;;2;261076721;261076721;-84
2022/03/15 19:42:17;;;;;;;;;31.00;30.00;;;;;;;;2;261080010;261080010;-82
2022/03/15 19:51:52;;;;;;;;;;;;;;;;;;;;;
2022/03/15 20:00:08;;;;;;;;;25.50;25.50;;;;;;;;2;261100526;261100526;-82
2022/03/15 20:09:10;;;;;;;;;19.50;19.50;;;;;;;;2;261073900;261073900;-82
2022/03/15 20:27:03;;;;;;;;;19.00;19.00;;;;;;;;2;261081570;261081570;-82
2022/03/15 20:35:39;;;;;;;;;27.00;27.00;;;;;;;;2;261075256;261075256;-84
2022/03/15 20:44:49;;;;;;;;;21.50;19.00;;;;;;;;2;261083597;261083597;-84
2022/03/15 21:02:43;;;;;;;;;37.00;32.50;;;;;;;;2;261065836;261065836;-84
2022/03/15 21:47:57;;;;;;;;;12.50;12.50;;;;;;;;2;261077008;261077008;-87
2022/03/15 23:27:44;;;;;;;;;12.00;12.00;;;;;;;;2;261079783;261079783;-85
2022/03/15 23:36:08;;;;;;;;;12.50;12.50;;;;;;;;2;261078494;261078494;-85
